sensor_id;sensor_type;location;lat;lon;timestamp;P1;P2;P0
35654;PMS1003;21773;50.010;19.972;2023-04-01T00:00:35;4.75;3.75;3.75
35654;PMS1003;21773;50.010;19.972;2023-04-01T00:03:38;2.00;2.00;1.60
35654;PMS1003;21773;50.010;19.972;2023-04-01T00:06:43;4.00;4.00;3.75
35654;PMS1003;21773;50.010;19.972;2023-04-01T00:09:47;4.00;4.00;4.00
35654;PMS1003;21773;50.010;19.972;2023-04-01T00:12:50;4.60;4.60;4.60
35654;PMS1003;21773;50.010;19.972;2023-04-01T00:15:53;4.00;4.00;3.60
35654;PMS1003;21773;50.010;19.972;2023-04-01T00:19:00;4.75;4.00;3.75
35654;PMS1003;21773;50.010;19.972;2023-04-01T00:22:05;4.00;4.00;3.40
35654;PMS1003;21773;50.010;19.972;2023-04-01T00:25:08;2.00;2.00;2.00
35654;PMS1003;21773;50.010;19.972;2023-04-01T00:28:12;4.00;4.00;4.00
35654;PMS1003;21773;50.010;19.972;2023-04-01T00:31:16;4.00;4.00;4.00
35654;PMS1003;21773;50.010;19.972;2023-04-01T00:34:20;5.80;5.80;5.80
35654;PMS1003;21773;50.010;19.972;2023-04-01T00:37:25;3.00;3.00;3.00
35654;PMS1003;21773;50.010;19.972;2023-04-01T00:40:29;4.60;4.60;4.60
35654;PMS1003;21773;50.010;19.972;2023-04-01T00:43:35;5.60;5.60;5.20
35654;PMS1003;21773;50.010;19.972;2023-04-01T00:46:39;6.00;6.00;5.00
35654;PMS1003;21773;50.010;19.972;2023-04-01T00:49:44;3.00;3.00;3.00
35654;PMS1003;21773;50.010;19.972;2023-04-01T00:52:51;4.00;4.00;4.00
35654;PMS1003;21773;50.010;19.972;2023-04-01T00:55:56;4.00;4.00;3.00
35654;PMS1003;21773;50.010;19.972;2023-04-01T00:59:04;3.60;2.00;2.00
35654;PMS1003;21773;50.010;19.972;2023-04-01T01:02:13;3.00;3.00;2.00
35654;PMS1003;21773;50.010;19.972;2023-04-01T01:05:20;4.00;4.00;4.00
35654;PMS1003;21773;50.010;19.972;2023-04-01T01:08:47;4.00;4.00;4.00
35654;PMS1003;21773;50.010;19.972;2023-04-01T01:12:07;3.00;2.00;2.00
35654;PMS1003;21773;50.010;19.972;2023-04-01T01:15:15;3.00;3.00;3.00
35654;PMS1003;21773;50.010;19.972;2023-04-01T01:18:27;4.00;4.00;4.00
35654;PMS1003;21773;50.010;19.972;2023-04-01T01:21:42;4.00;4.00;4.00
35654;PMS1003;21773;50.010;19.972;2023-04-01T01:25:14;2.00;2.00;2.00
35654;PMS1003;21773;50.010;19.972;2023-04-01T01:28:32;3.60;3.60;3.60
35654;PMS1003;21773;50.010;19.972;2023-04-01T01:31:50;4.00;3.40;3.00
35654;PMS1003;21773;50.010;19.972;2023-04-01T01:35:13;4.20;4.20;4.00
35654;PMS1003;21773;50.010;19.972;2023-04-01T01:38:22;4.25;4.25;4.00
35654;PMS1003;21773;50.010;19.972;2023-04-01T01:41:37;4.60;4.60;4.00
35654;PMS1003;21773;50.010;19.972;2023-04-01T01:44:44;3.00;3.00;3.00
35654;PMS1003;21773;50.010;19.972;2023-04-01T01:47:50;3.75;3.75;3.00
35654;PMS1003;21773;50.010;19.972;2023-04-01T01:50:56;4.00;4.00;3.20
35654;PMS1003;21773;50.010;19.972;2023-04-01T01:54:01;4.00;3.50;3.00
35654;PMS1003;21773;50.010;19.972;2023-04-01T01:57:08;3.60;3.60;3.60
35654;PMS1003;21773;50.010;19.972;2023-04-01T02:00:16;5.40;5.40;5.00
35654;PMS1003;21773;50.010;19.972;2023-04-01T02:03:23;2.00;2.00;1.20
35654;PMS1003;21773;50.010;19.972;2023-04-01T02:06:30;4.00;4.00;4.00
35654;PMS1003;21773;50.010;19.972;2023-04-01T02:09:37;4.40;4.40;4.40
35654;PMS1003;21773;50.010;19.972;2023-04-01T02:12:42;5.00;4.00;3.25
35654;PMS1003;21773;50.010;19.972;2023-04-01T02:15:49;5.00;5.00;5.00
35654;PMS1003;21773;50.010;19.972;2023-04-01T02:18:57;5.00;5.00;5.00
35654;PMS1003;21773;50.010;19.972;2023-04-01T02:22:04;6.50;6.50;6.00
35654;PMS1003;21773;50.010;19.972;2023-04-01T02:25:12;2.00;2.00;2.00
35654;PMS1003;21773;50.010;19.972;2023-04-01T02:28:18;3.80;3.80;3.20
35654;PMS1003;21773;50.010;19.972;2023-04-01T02:31:22;3.75;3.75;3.75
35654;PMS1003;21773;50.010;19.972;2023-04-01T02:34:27;3.40;3.40;3.00
35654;PMS1003;21773;50.010;19.972;2023-04-01T02:37:32;2.60;2.60;2.00
35654;PMS1003;21773;50.010;19.972;2023-04-01T02:40:42;3.25;3.25;3.25
35654;PMS1003;21773;50.010;19.972;2023-04-01T02:43:47;4.00;3.40;3.40
35654;PMS1003;21773;50.010;19.972;2023-04-01T02:46:51;3.00;3.00;3.00
35654;PMS1003;21773;50.010;19.972;2023-04-01T02:49:54;3.60;3.00;2.60
35654;PMS1003;21773;50.010;19.972;2023-04-01T02:53:01;3.00;3.00;3.00
35654;PMS1003;21773;50.010;19.972;2023-04-01T02:56:07;4.00;4.00;4.00
35654;PMS1003;21773;50.010;19.972;2023-04-01T02:59:11;5.50;5.50;5.50
35654;PMS1003;21773;50.010;19.972;2023-04-01T03:02:14;4.00;4.00;3.40
35654;PMS1003;21773;50.010;19.972;2023-04-01T03:05:18;3.80;3.00;2.80
35654;PMS1003;21773;50.010;19.972;2023-04-01T03:08:24;5.00;5.00;5.00
35654;PMS1003;21773;50.010;19.972;2023-04-01T03:11:27;7.20;6.60;6.60
35654;PMS1003;21773;50.010;19.972;2023-04-01T03:14:30;5.00;5.00;4.20
35654;PMS1003;21773;50.010;19.972;2023-04-01T03:17:34;3.50;3.50;3.50
35654;PMS1003;21773;50.010;19.972;2023-04-01T03:20:37;6.40;6.00;6.00
35654;PMS1003;21773;50.010;19.972;2023-04-01T03:23:42;5.40;5.40;4.40
35654;PMS1003;21773;50.010;19.972;2023-04-01T03:26:45;4.80;3.20;3.00
35654;PMS1003;21773;50.010;19.972;2023-04-01T03:29:49;3.20;2.20;2.20
35654;PMS1003;21773;50.010;19.972;2023-04-01T03:32:53;3.33;3.33;3.33
35654;PMS1003;21773;50.010;19.972;2023-04-01T03:35:57;7.00;6.00;6.00
35654;PMS1003;21773;50.010;19.972;2023-04-01T03:39:02;3.60;3.60;3.60
35654;PMS1003;21773;50.010;19.972;2023-04-01T03:42:13;5.00;4.00;4.00
35654;PMS1003;21773;50.010;19.972;2023-04-01T03:45:17;5.00;5.00;5.00
35654;PMS1003;21773;50.010;19.972;2023-04-01T03:48:21;5.00;4.50;4.00
35654;PMS1003;21773;50.010;19.972;2023-04-01T03:51:24;6.00;6.00;5.60
35654;PMS1003;21773;50.010;19.972;2023-04-01T03:54:29;7.00;7.00;7.00
35654;PMS1003;21773;50.010;19.972;2023-04-01T03:57:33;5.00;5.00;5.00
35654;PMS1003;21773;50.010;19.972;2023-04-01T04:00:47;8.75;7.00;6.75
35654;PMS1003;21773;50.010;19.972;2023-04-01T04:03:50;7.00;7.00;7.00
35654;PMS1003;21773;50.010;19.972;2023-04-01T04:06:56;5.00;5.00;5.00
35654;PMS1003;21773;50.010;19.972;2023-04-01T04:10:01;7.40;7.00;7.00
35654;PMS1003;21773;50.010;19.972;2023-04-01T04:13:05;7.00;7.00;7.00
35654;PMS1003;21773;50.010;19.972;2023-04-01T04:16:13;6.00;6.00;6.00
35654;PMS1003;21773;50.010;19.972;2023-04-01T04:19:20;5.00;5.00;5.00
35654;PMS1003;21773;50.010;19.972;2023-04-01T04:22:24;8.00;8.00;8.00
35654;PMS1003;21773;50.010;19.972;2023-04-01T04:25:29;6.75;6.75;6.00
35654;PMS1003;21773;50.010;19.972;2023-04-01T04:28:33;7.00;6.00;5.50
35654;PMS1003;21773;50.010;19.972;2023-04-01T04:31:36;6.00;6.00;6.00
35654;PMS1003;21773;50.010;19.972;2023-04-01T04:34:41;6.40;5.60;5.60
35654;PMS1003;21773;50.010;19.972;2023-04-01T04:37:44;5.00;5.00;5.00
35654;PMS1003;21773;50.010;19.972;2023-04-01T04:40:49;6.00;6.00;6.00
35654;PMS1003;21773;50.010;19.972;2023-04-01T04:43:53;9.50;9.50;8.50
35654;PMS1003;21773;50.010;19.972;2023-04-01T04:46:58;5.40;5.40;5.00
35654;PMS1003;21773;50.010;19.972;2023-04-01T04:50:02;7.00;6.75;6.00
35654;PMS1003;21773;50.010;19.972;2023-04-01T04:53:09;4.00;4.00;3.20
35654;PMS1003;21773;50.010;19.972;2023-04-01T04:56:16;5.40;5.40;5.40
35654;PMS1003;21773;50.010;19.972;2023-04-01T04:59:27;4.75;4.00;4.00
35654;PMS1003;21773;50.010;19.972;2023-04-01T05:02:39;7.00;7.00;7.00
35654;PMS1003;21773;50.010;19.972;2023-04-01T05:05:48;6.00;6.00;6.00
35654;PMS1003;21773;50.010;19.972;2023-04-01T05:08:53;4.50;4.50;4.50
35654;PMS1003;21773;50.010;19.972;2023-04-01T05:11:58;3.00;3.00;3.00
35654;PMS1003;21773;50.010;19.972;2023-04-01T05:15:10;5.40;5.40;5.40
35654;PMS1003;21773;50.010;19.972;2023-04-01T05:18:14;3.25;3.25;3.00
35654;PMS1003;21773;50.010;19.972;2023-04-01T05:21:17;4.00;4.00;3.60
35654;PMS1003;21773;50.010;19.972;2023-04-01T05:24:21;5.00;5.00;4.67
35654;PMS1003;21773;50.010;19.972;2023-04-01T05:27:26;3.00;3.00;3.00
35654;PMS1003;21773;50.010;19.972;2023-04-01T05:30:30;3.50;3.50;2.50
35654;PMS1003;21773;50.010;19.972;2023-04-01T05:33:36;4.40;4.40;4.00
35654;PMS1003;21773;50.010;19.972;2023-04-01T05:36:39;4.00;3.00;3.00
35654;PMS1003;21773;50.010;19.972;2023-04-01T05:39:43;4.60;4.60;4.00
35654;PMS1003;21773;50.010;19.972;2023-04-01T05:42:48;4.00;4.00;4.00
35654;PMS1003;21773;50.010;19.972;2023-04-01T05:45:51;4.00;3.00;2.00
35654;PMS1003;21773;50.010;19.972;2023-04-01T05:49:11;5.00;5.00;4.00
35654;PMS1003;21773;50.010;19.972;2023-04-01T05:52:15;6.00;5.67;4.67
35654;PMS1003;21773;50.010;19.972;2023-04-01T05:55:18;5.80;5.80;5.40
35654;PMS1003;21773;50.010;19.972;2023-04-01T05:58:25;3.40;3.40;3.00
35654;PMS1003;21773;50.010;19.972;2023-04-01T06:01:29;5.00;5.00;5.00
35654;PMS1003;21773;50.010;19.972;2023-04-01T06:04:32;4.40;4.40;4.00
35654;PMS1003;21773;50.010;19.972;2023-04-01T06:07:40;6.00;6.00;6.00
35654;PMS1003;21773;50.010;19.972;2023-04-01T06:10:48;7.00;7.00;6.80
35654;PMS1003;21773;50.010;19.972;2023-04-01T06:14:15;6.00;5.60;5.60
35654;PMS1003;21773;50.010;19.972;2023-04-01T06:17:38;4.00;4.00;3.00
35654;PMS1003;21773;50.010;19.972;2023-04-01T06:20:50;6.00;5.60;5.60
35654;PMS1003;21773;50.010;19.972;2023-04-01T06:24:09;6.80;5.80;5.80
35654;PMS1003;21773;50.010;19.972;2023-04-01T06:27:29;7.00;6.00;6.00
35654;PMS1003;21773;50.010;19.972;2023-04-01T06:30:51;7.00;7.00;7.00
35654;PMS1003;21773;50.010;19.972;2023-04-01T06:34:16;5.00;4.40;4.40
35654;PMS1003;21773;50.010;19.972;2023-04-01T06:37:48;6.00;6.00;6.00
35654;PMS1003;21773;50.010;19.972;2023-04-01T06:41:14;6.50;6.25;6.25
35654;PMS1003;21773;50.010;19.972;2023-04-01T06:44:54;7.00;7.00;6.00
35654;PMS1003;21773;50.010;19.972;2023-04-01T06:48:33;6.20;6.20;6.00
35654;PMS1003;21773;50.010;19.972;2023-04-01T06:52:06;5.40;5.00;5.00
35654;PMS1003;21773;50.010;19.972;2023-04-01T06:55:38;6.00;5.60;5.60
35654;PMS1003;21773;50.010;19.972;2023-04-01T06:58:51;6.40;6.40;6.40
35654;PMS1003;21773;50.010;19.972;2023-04-01T07:02:00;7.50;7.50;7.00
35654;PMS1003;21773;50.010;19.972;2023-04-01T07:05:11;6.00;5.60;5.60
35654;PMS1003;21773;50.010;19.972;2023-04-01T07:08:17;4.80;4.80;4.00
35654;PMS1003;21773;50.010;19.972;2023-04-01T07:11:27;4.60;4.00;4.00
35654;PMS1003;21773;50.010;19.972;2023-04-01T07:14:52;7.00;7.00;6.00
35654;PMS1003;21773;50.010;19.972;2023-04-01T07:18:00;5.00;5.00;5.00
35654;PMS1003;21773;50.010;19.972;2023-04-01T07:21:13;4.00;4.00;4.00
35654;PMS1003;21773;50.010;19.972;2023-04-01T07:24:29;7.50;7.00;7.00
35654;PMS1003;21773;50.010;19.972;2023-04-01T07:27:39;5.00;5.00;5.00
35654;PMS1003;21773;50.010;19.972;2023-04-01T07:30:47;6.60;6.60;6.60
35654;PMS1003;21773;50.010;19.972;2023-04-01T07:34:01;6.00;6.00;6.00
35654;PMS1003;21773;50.010;19.972;2023-04-01T07:37:14;7.00;6.25;6.25
35654;PMS1003;21773;50.010;19.972;2023-04-01T07:40:23;9.60;9.60;9.00
35654;PMS1003;21773;50.010;19.972;2023-04-01T07:43:42;6.80;5.80;5.80
35654;PMS1003;21773;50.010;19.972;2023-04-01T07:47:03;6.40;6.00;6.00
35654;PMS1003;21773;50.010;19.972;2023-04-01T07:50:18;7.00;7.00;7.00
35654;PMS1003;21773;50.010;19.972;2023-04-01T07:53:28;5.00;5.00;5.00
35654;PMS1003;21773;50.010;19.972;2023-04-01T07:56:41;5.50;5.50;5.00
35654;PMS1003;21773;50.010;19.972;2023-04-01T07:59:56;4.60;4.40;4.00
35654;PMS1003;21773;50.010;19.972;2023-04-01T08:03:33;4.60;4.60;4.60
35654;PMS1003;21773;50.010;19.972;2023-04-01T08:06:51;5.20;5.00;5.00
35654;PMS1003;21773;50.010;19.972;2023-04-01T08:10:04;7.00;7.00;7.00
35654;PMS1003;21773;50.010;19.972;2023-04-01T08:13:34;6.50;6.50;6.00
35654;PMS1003;21773;50.010;19.972;2023-04-01T08:17:05;8.00;8.00;7.50
35654;PMS1003;21773;50.010;19.972;2023-04-01T08:20:23;7.00;7.00;6.50
35654;PMS1003;21773;50.010;19.972;2023-04-01T08:23:33;7.00;6.00;6.00
35654;PMS1003;21773;50.010;19.972;2023-04-01T08:26:42;8.40;8.00;7.40
35654;PMS1003;21773;50.010;19.972;2023-04-01T08:29:51;7.00;6.00;6.00
35654;PMS1003;21773;50.010;19.972;2023-04-01T08:33:04;6.40;6.00;6.00
35654;PMS1003;21773;50.010;19.972;2023-04-01T08:36:14;6.40;6.40;6.00
35654;PMS1003;21773;50.010;19.972;2023-04-01T08:39:28;9.20;9.00;8.00
35654;PMS1003;21773;50.010;19.972;2023-04-01T08:42:43;7.00;7.00;6.75
35654;PMS1003;21773;50.010;19.972;2023-04-01T08:46:02;7.80;7.00;7.00
35654;PMS1003;21773;50.010;19.972;2023-04-01T08:49:29;5.80;5.20;5.00
35654;PMS1003;21773;50.010;19.972;2023-04-01T08:53:06;7.33;7.33;7.00
35654;PMS1003;21773;50.010;19.972;2023-04-01T08:56:14;9.00;7.00;7.00
35654;PMS1003;21773;50.010;19.972;2023-04-01T08:59:31;7.00;6.33;6.33
35654;PMS1003;21773;50.010;19.972;2023-04-01T09:03:19;5.50;5.50;5.25
35654;PMS1003;21773;50.010;19.972;2023-04-01T09:06:38;4.40;3.60;3.40
35654;PMS1003;21773;50.010;19.972;2023-04-01T09:09:59;6.60;6.60;6.60
35654;PMS1003;21773;50.010;19.972;2023-04-01T09:13:41;6.75;6.75;6.00
35654;PMS1003;21773;50.010;19.972;2023-04-01T09:17:19;5.25;5.25;5.25
35654;PMS1003;21773;50.010;19.972;2023-04-01T09:20:45;5.80;5.80;5.00
35654;PMS1003;21773;50.010;19.972;2023-04-01T09:24:14;4.00;3.60;3.60
35654;PMS1003;21773;50.010;19.972;2023-04-01T09:27:44;5.00;5.00;5.00
35654;PMS1003;21773;50.010;19.972;2023-04-01T09:31:00;8.00;8.00;7.40
35654;PMS1003;21773;50.010;19.972;2023-04-01T09:34:52;4.50;4.50;4.50
35654;PMS1003;21773;50.010;19.972;2023-04-01T09:38:04;6.60;6.60;6.00
35654;PMS1003;21773;50.010;19.972;2023-04-01T09:41:33;5.00;5.00;5.00
35654;PMS1003;21773;50.010;19.972;2023-04-01T09:44:56;6.00;5.20;5.00
35654;PMS1003;21773;50.010;19.972;2023-04-01T09:48:05;6.00;6.00;6.00
35654;PMS1003;21773;50.010;19.972;2023-04-01T09:51:24;7.00;6.00;5.40
35654;PMS1003;21773;50.010;19.972;2023-04-01T09:54:43;6.00;6.00;6.00
35654;PMS1003;21773;50.010;19.972;2023-04-01T10:02:27;7.50;7.50;6.75
35654;PMS1003;21773;50.010;19.972;2023-04-01T10:06:15;6.80;6.80;6.20
35654;PMS1003;21773;50.010;19.972;2023-04-01T10:17:25;8.00;7.80;7.00
35654;PMS1003;21773;50.010;19.972;2023-04-01T10:20:58;5.80;5.80;5.00
35654;PMS1003;21773;50.010;19.972;2023-04-01T10:24:28;7.00;6.60;6.00
35654;PMS1003;21773;50.010;19.972;2023-04-01T10:28:01;8.80;8.00;7.00
35654;PMS1003;21773;50.010;19.972;2023-04-01T10:35:34;7.50;7.50;7.50
35654;PMS1003;21773;50.010;19.972;2023-04-01T10:43:01;8.00;7.50;7.50
35654;PMS1003;21773;50.010;19.972;2023-04-01T10:46:52;7.00;6.25;6.00
35654;PMS1003;21773;50.010;19.972;2023-04-01T10:57:53;6.20;6.20;6.20
35654;PMS1003;21773;50.010;19.972;2023-04-01T11:01:53;7.60;7.60;7.60
35654;PMS1003;21773;50.010;19.972;2023-04-01T11:05:42;8.00;8.00;7.60
35654;PMS1003;21773;50.010;19.972;2023-04-01T11:12:56;6.50;6.00;6.00
35654;PMS1003;21773;50.010;19.972;2023-04-01T11:20:04;5.40;5.40;5.40
35654;PMS1003;21773;50.010;19.972;2023-04-01T11:23:27;6.00;6.00;6.00
35654;PMS1003;21773;50.010;19.972;2023-04-01T11:26:51;6.60;6.60;6.00
35654;PMS1003;21773;50.010;19.972;2023-04-01T11:30:20;6.60;6.00;6.00
35654;PMS1003;21773;50.010;19.972;2023-04-01T11:33:38;6.00;5.00;5.00
35654;PMS1003;21773;50.010;19.972;2023-04-01T11:36:50;5.40;5.40;5.40
35654;PMS1003;21773;50.010;19.972;2023-04-01T11:40:13;8.00;7.75;7.00
35654;PMS1003;21773;50.010;19.972;2023-04-01T11:43:46;5.00;5.00;4.80
35654;PMS1003;21773;50.010;19.972;2023-04-01T11:47:22;5.00;5.00;5.00
35654;PMS1003;21773;50.010;19.972;2023-04-01T11:50:46;5.00;5.00;5.00
35654;PMS1003;21773;50.010;19.972;2023-04-01T11:54:07;7.00;7.00;7.00
35654;PMS1003;21773;50.010;19.972;2023-04-01T11:57:35;6.00;6.00;5.00
35654;PMS1003;21773;50.010;19.972;2023-04-01T12:00:55;8.60;8.60;8.00
35654;PMS1003;21773;50.010;19.972;2023-04-01T12:04:18;7.00;7.00;6.60
35654;PMS1003;21773;50.010;19.972;2023-04-01T12:11:16;10.00;9.25;9.00
35654;PMS1003;21773;50.010;19.972;2023-04-01T12:14:26;8.40;8.40;8.00
35654;PMS1003;21773;50.010;19.972;2023-04-01T12:17:36;7.00;6.80;6.80
35654;PMS1003;21773;50.010;19.972;2023-04-01T12:20:49;6.00;5.80;5.80
35654;PMS1003;21773;50.010;19.972;2023-04-01T12:27:41;13.33;11.33;10.33
35654;PMS1003;21773;50.010;19.972;2023-04-01T12:30:59;12.00;11.00;9.60
35654;PMS1003;21773;50.010;19.972;2023-04-01T12:34:30;15.40;14.40;13.00
35654;PMS1003;21773;50.010;19.972;2023-04-01T12:37:47;9.00;8.40;8.00
35654;PMS1003;21773;50.010;19.972;2023-04-01T12:41:08;7.00;7.00;6.80
35654;PMS1003;21773;50.010;19.972;2023-04-01T12:44:23;7.00;7.00;7.00
35654;PMS1003;21773;50.010;19.972;2023-04-01T12:47:48;8.00;8.00;8.00
35654;PMS1003;21773;50.010;19.972;2023-04-01T12:51:25;7.40;7.00;6.40
35654;PMS1003;21773;50.010;19.972;2023-04-01T12:58:19;9.00;8.50;8.50
35654;PMS1003;21773;50.010;19.972;2023-04-01T13:01:50;6.40;6.00;5.40
35654;PMS1003;21773;50.010;19.972;2023-04-01T13:05:14;7.00;7.00;6.00
35654;PMS1003;21773;50.010;19.972;2023-04-01T13:08:30;7.00;6.00;6.00
35654;PMS1003;21773;50.010;19.972;2023-04-01T13:11:48;8.00;8.00;7.40
35654;PMS1003;21773;50.010;19.972;2023-04-01T13:15:06;8.40;8.00;7.80
35654;PMS1003;21773;50.010;19.972;2023-04-01T13:18:24;10.50;9.50;9.00
35654;PMS1003;21773;50.010;19.972;2023-04-01T13:21:38;9.33;9.33;9.33
35654;PMS1003;21773;50.010;19.972;2023-04-01T13:24:54;9.00;8.00;7.00
35654;PMS1003;21773;50.010;19.972;2023-04-01T13:28:05;8.25;8.25;7.25
35654;PMS1003;21773;50.010;19.972;2023-04-01T13:31:21;5.33;5.33;5.00
35654;PMS1003;21773;50.010;19.972;2023-04-01T13:34:50;7.20;6.60;6.20
35654;PMS1003;21773;50.010;19.972;2023-04-01T13:38:20;9.00;7.00;7.00
35654;PMS1003;21773;50.010;19.972;2023-04-01T13:41:51;11.40;11.40;10.40
35654;PMS1003;21773;50.010;19.972;2023-04-01T13:45:10;5.00;5.00;5.00
35654;PMS1003;21773;50.010;19.972;2023-04-01T13:48:29;7.00;7.00;7.00
35654;PMS1003;21773;50.010;19.972;2023-04-01T13:55:20;7.00;6.20;6.20
35654;PMS1003;21773;50.010;19.972;2023-04-01T13:58:38;4.25;4.25;4.00
35654;PMS1003;21773;50.010;19.972;2023-04-01T14:01:53;7.00;7.00;7.00
35654;PMS1003;21773;50.010;19.972;2023-04-01T14:09:14;7.00;7.00;6.40
35654;PMS1003;21773;50.010;19.972;2023-04-01T14:12:39;4.80;4.80;4.40
35654;PMS1003;21773;50.010;19.972;2023-04-01T14:15:55;5.00;5.00;5.00
35654;PMS1003;21773;50.010;19.972;2023-04-01T14:19:12;6.00;6.00;5.80
35654;PMS1003;21773;50.010;19.972;2023-04-01T14:22:32;7.00;7.00;7.00
35654;PMS1003;21773;50.010;19.972;2023-04-01T14:25:48;6.00;5.60;5.60
35654;PMS1003;21773;50.010;19.972;2023-04-01T14:29:02;6.00;6.00;6.00
35654;PMS1003;21773;50.010;19.972;2023-04-01T14:32:16;7.60;7.60;7.40
35654;PMS1003;21773;50.010;19.972;2023-04-01T14:35:35;11.25;11.25;10.50
35654;PMS1003;21773;50.010;19.972;2023-04-01T14:38:47;6.60;6.40;6.00
35654;PMS1003;21773;50.010;19.972;2023-04-01T14:42:08;6.00;6.00;5.00
35654;PMS1003;21773;50.010;19.972;2023-04-01T14:45:45;7.50;7.50;7.00
35654;PMS1003;21773;50.010;19.972;2023-04-01T14:48:53;7.00;7.00;7.00
35654;PMS1003;21773;50.010;19.972;2023-04-01T14:52:04;9.00;9.00;9.00
35654;PMS1003;21773;50.010;19.972;2023-04-01T14:55:19;9.20;8.60;7.20
35654;PMS1003;21773;50.010;19.972;2023-04-01T14:58:40;9.00;9.00;8.00
35654;PMS1003;21773;50.010;19.972;2023-04-01T15:01:47;6.80;6.80;6.20
35654;PMS1003;21773;50.010;19.972;2023-04-01T15:04:58;10.60;10.60;9.60
35654;PMS1003;21773;50.010;19.972;2023-04-01T15:08:18;8.00;8.00;7.00
35654;PMS1003;21773;50.010;19.972;2023-04-01T15:11:28;9.00;9.00;8.00
35654;PMS1003;21773;50.010;19.972;2023-04-01T15:14:49;10.00;10.00;9.00
35654;PMS1003;21773;50.010;19.972;2023-04-01T15:18:03;12.80;11.00;10.00
35654;PMS1003;21773;50.010;19.972;2023-04-01T15:21:20;13.25;12.00;11.50
35654;PMS1003;21773;50.010;19.972;2023-04-01T15:24:39;11.00;11.00;10.67
35654;PMS1003;21773;50.010;19.972;2023-04-01T15:27:49;12.50;12.00;11.00
35654;PMS1003;21773;50.010;19.972;2023-04-01T15:31:00;12.00;12.00;10.40
35654;PMS1003;21773;50.010;19.972;2023-04-01T15:37:40;11.00;9.00;9.00
35654;PMS1003;21773;50.010;19.972;2023-04-01T15:40:54;9.40;8.60;8.60
35654;PMS1003;21773;50.010;19.972;2023-04-01T15:44:24;9.75;9.75;8.75
35654;PMS1003;21773;50.010;19.972;2023-04-01T15:47:52;12.25;11.00;11.00
35654;PMS1003;21773;50.010;19.972;2023-04-01T15:51:07;11.00;11.00;10.00
35654;PMS1003;21773;50.010;19.972;2023-04-01T15:54:37;9.80;9.00;8.00
35654;PMS1003;21773;50.010;19.972;2023-04-01T15:58:15;9.00;8.80;8.00
35654;PMS1003;21773;50.010;19.972;2023-04-01T16:01:34;10.00;10.00;9.40
35654;PMS1003;21773;50.010;19.972;2023-04-01T16:04:49;7.20;6.20;6.20
35654;PMS1003;21773;50.010;19.972;2023-04-01T16:08:03;10.00;10.00;9.00
35654;PMS1003;21773;50.010;19.972;2023-04-01T16:11:18;9.00;8.60;8.00
35654;PMS1003;21773;50.010;19.972;2023-04-01T16:14:34;9.40;8.00;8.00
35654;PMS1003;21773;50.010;19.972;2023-04-01T16:17:53;6.00;5.20;5.20
35654;PMS1003;21773;50.010;19.972;2023-04-01T16:21:14;10.00;9.25;9.25
35654;PMS1003;21773;50.010;19.972;2023-04-01T16:24:32;10.00;10.00;9.33
35654;PMS1003;21773;50.010;19.972;2023-04-01T16:27:42;10.00;9.00;8.00
35654;PMS1003;21773;50.010;19.972;2023-04-01T16:30:55;10.00;9.20;9.00
35654;PMS1003;21773;50.010;19.972;2023-04-01T16:34:03;12.00;11.00;11.00
35654;PMS1003;21773;50.010;19.972;2023-04-01T16:37:15;9.00;9.00;8.40
35654;PMS1003;21773;50.010;19.972;2023-04-01T16:40:25;10.20;9.20;8.80
35654;PMS1003;21773;50.010;19.972;2023-04-01T16:43:45;10.75;10.00;9.00
35654;PMS1003;21773;50.010;19.972;2023-04-01T16:46:56;12.00;12.00;11.20
35654;PMS1003;21773;50.010;19.972;2023-04-01T16:50:13;6.60;6.60;5.60
35654;PMS1003;21773;50.010;19.972;2023-04-01T16:53:30;9.40;9.40;9.00
35654;PMS1003;21773;50.010;19.972;2023-04-01T16:56:41;10.00;9.40;8.60
35654;PMS1003;21773;50.010;19.972;2023-04-01T16:59:54;11.00;11.00;10.00
35654;PMS1003;21773;50.010;19.972;2023-04-01T17:03:04;13.00;13.00;11.40
35654;PMS1003;21773;50.010;19.972;2023-04-01T17:06:21;11.00;10.00;9.00
35654;PMS1003;21773;50.010;19.972;2023-04-01T17:09:39;9.60;8.40;7.60
35654;PMS1003;21773;50.010;19.972;2023-04-01T17:13:02;9.00;9.00;8.40
35654;PMS1003;21773;50.010;19.972;2023-04-01T17:16:29;10.00;10.00;9.00
35654;PMS1003;21773;50.010;19.972;2023-04-01T17:19:55;10.00;10.00;9.00
35654;PMS1003;21773;50.010;19.972;2023-04-01T17:23:12;9.00;9.00;8.00
35654;PMS1003;21773;50.010;19.972;2023-04-01T17:26:26;11.00;10.00;9.00
35654;PMS1003;21773;50.010;19.972;2023-04-01T17:29:46;9.00;9.00;8.00
35654;PMS1003;21773;50.010;19.972;2023-04-01T17:33:22;11.00;10.50;10.00
35654;PMS1003;21773;50.010;19.972;2023-04-01T17:37:00;9.20;9.00;8.60
35654;PMS1003;21773;50.010;19.972;2023-04-01T17:40:27;10.00;9.60;9.00
35654;PMS1003;21773;50.010;19.972;2023-04-01T17:43:43;12.40;12.40;12.00
35654;PMS1003;21773;50.010;19.972;2023-04-01T17:47:01;10.00;9.75;9.00
35654;PMS1003;21773;50.010;19.972;2023-04-01T17:50:20;15.80;15.40;14.60
35654;PMS1003;21773;50.010;19.972;2023-04-01T17:53:28;13.00;12.00;11.00
35654;PMS1003;21773;50.010;19.972;2023-04-01T17:56:42;12.20;11.60;11.40
35654;PMS1003;21773;50.010;19.972;2023-04-01T17:59:55;11.60;11.60;10.80
35654;PMS1003;21773;50.010;19.972;2023-04-01T18:03:13;12.60;11.40;10.00
35654;PMS1003;21773;50.010;19.972;2023-04-01T18:06:29;14.00;13.00;12.00
35654;PMS1003;21773;50.010;19.972;2023-04-01T18:09:41;13.00;12.80;12.00
35654;PMS1003;21773;50.010;19.972;2023-04-01T18:12:58;13.25;13.25;12.25
35654;PMS1003;21773;50.010;19.972;2023-04-01T18:16:18;13.80;12.00;10.40
35654;PMS1003;21773;50.010;19.972;2023-04-01T18:19:33;15.60;15.00;14.40
35654;PMS1003;21773;50.010;19.972;2023-04-01T18:22:47;15.40;14.00;13.00
35654;PMS1003;21773;50.010;19.972;2023-04-01T18:26:02;15.00;13.00;12.00
35654;PMS1003;21773;50.010;19.972;2023-04-01T18:29:11;13.80;13.00;11.80
35654;PMS1003;21773;50.010;19.972;2023-04-01T18:32:30;14.60;14.00;13.00
35654;PMS1003;21773;50.010;19.972;2023-04-01T18:35:45;14.00;14.00;13.00
35654;PMS1003;21773;50.010;19.972;2023-04-01T18:38:54;20.40;18.00;16.00
35654;PMS1003;21773;50.010;19.972;2023-04-01T18:42:05;18.00;17.00;16.00
35654;PMS1003;21773;50.010;19.972;2023-04-01T18:45:19;17.00;17.00;16.00
35654;PMS1003;21773;50.010;19.972;2023-04-01T18:51:55;15.75;15.75;13.75
35654;PMS1003;21773;50.010;19.972;2023-04-01T18:55:20;19.00;17.00;15.20
35654;PMS1003;21773;50.010;19.972;2023-04-01T18:58:34;19.00;17.00;15.75
35654;PMS1003;21773;50.010;19.972;2023-04-01T19:01:48;19.50;18.50;16.50
35654;PMS1003;21773;50.010;19.972;2023-04-01T19:05:03;16.20;15.20;13.20
35654;PMS1003;21773;50.010;19.972;2023-04-01T19:08:14;17.50;16.00;15.00
35654;PMS1003;21773;50.010;19.972;2023-04-01T19:11:24;18.50;18.50;17.50
35654;PMS1003;21773;50.010;19.972;2023-04-01T19:14:38;20.80;19.80;17.00
35654;PMS1003;21773;50.010;19.972;2023-04-01T19:17:57;20.00;18.40;16.20
35654;PMS1003;21773;50.010;19.972;2023-04-01T19:21:19;19.50;18.00;16.50
35654;PMS1003;21773;50.010;19.972;2023-04-01T19:24:39;21.40;20.00;18.00
35654;PMS1003;21773;50.010;19.972;2023-04-01T19:28:07;21.00;20.00;18.20
35654;PMS1003;21773;50.010;19.972;2023-04-01T19:31:31;20.60;19.00;17.00
35654;PMS1003;21773;50.010;19.972;2023-04-01T19:34:45;20.00;20.00;18.00
35654;PMS1003;21773;50.010;19.972;2023-04-01T19:37:59;19.20;18.80;16.80